sensor_id;sensor_type;location;lat;lon;timestamp;pressure;altitude;pressure_sealevel;temperature;humidity
52935;BME280;38802;50.198;19.796;2023-03-22T00:01:47;96094.16;;;6.62;86.16
52935;BME280;38802;50.198;19.796;2023-03-22T00:04:15;96090.80;;;6.63;86.37
52935;BME280;38802;50.198;19.796;2023-03-22T00:06:43;96094.27;;;6.65;86.46
52935;BME280;38802;50.198;19.796;2023-03-22T00:09:11;96093.73;;;6.68;86.39
52935;BME280;38802;50.198;19.796;2023-03-22T00:11:39;96095.02;;;6.70;86.62
52935;BME280;38802;50.198;19.796;2023-03-22T00:14:07;96093.85;;;6.74;86.69
52935;BME280;38802;50.198;19.796;2023-03-22T00:16:35;96093.98;;;6.79;86.73
52935;BME280;38802;50.198;19.796;2023-03-22T00:19:03;96090.13;;;6.87;86.98
52935;BME280;38802;50.198;19.796;2023-03-22T00:21:31;96083.64;;;6.94;86.83
52935;BME280;38802;50.198;19.796;2023-03-22T00:23:59;96077.48;;;6.93;86.68
52935;BME280;38802;50.198;19.796;2023-03-22T00:26:28;96075.75;;;6.96;86.94
52935;BME280;38802;50.198;19.796;2023-03-22T00:28:56;96075.08;;;6.90;86.43
52935;BME280;38802;50.198;19.796;2023-03-22T00:31:24;96076.69;;;6.82;86.30
52935;BME280;38802;50.198;19.796;2023-03-22T00:33:52;96074.59;;;6.75;86.33
52935;BME280;38802;50.198;19.796;2023-03-22T00:36:20;96075.39;;;6.69;86.42
52935;BME280;38802;50.198;19.796;2023-03-22T00:38:50;96066.82;;;6.71;86.61
52935;BME280;38802;50.198;19.796;2023-03-22T00:41:20;96065.79;;;6.68;86.59
52935;BME280;38802;50.198;19.796;2023-03-22T00:43:50;96064.98;;;6.74;86.90
52935;BME280;38802;50.198;19.796;2023-03-22T00:46:20;96062.66;;;6.71;86.65
52935;BME280;38802;50.198;19.796;2023-03-22T00:48:48;96059.80;;;6.70;86.61
52935;BME280;38802;50.198;19.796;2023-03-22T00:51:16;96059.70;;;6.73;86.75
52935;BME280;38802;50.198;19.796;2023-03-22T00:53:44;96060.65;;;6.77;86.82
52935;BME280;38802;50.198;19.796;2023-03-22T00:56:16;96058.73;;;6.80;86.75
52935;BME280;38802;50.198;19.796;2023-03-22T00:58:55;96058.47;;;6.76;86.41
52935;BME280;38802;50.198;19.796;2023-03-22T01:01:23;96054.50;;;6.76;86.60
52935;BME280;38802;50.198;19.796;2023-03-22T01:03:51;96052.80;;;6.78;86.75
52935;BME280;38802;50.198;19.796;2023-03-22T01:06:20;96050.67;;;6.79;86.54
52935;BME280;38802;50.198;19.796;2023-03-22T01:08:48;96048.75;;;6.79;86.65
52935;BME280;38802;50.198;19.796;2023-03-22T01:11:17;96046.48;;;6.77;86.60
52935;BME280;38802;50.198;19.796;2023-03-22T01:13:45;96042.25;;;6.76;86.55
52935;BME280;38802;50.198;19.796;2023-03-22T01:16:15;96040.75;;;6.75;86.52
52935;BME280;38802;50.198;19.796;2023-03-22T01:18:43;96042.87;;;6.77;86.69
52935;BME280;38802;50.198;19.796;2023-03-22T01:21:11;96042.81;;;6.75;86.41
52935;BME280;38802;50.198;19.796;2023-03-22T01:23:41;96039.82;;;6.67;86.21
52935;BME280;38802;50.198;19.796;2023-03-22T01:26:09;96031.07;;;6.58;86.04
52935;BME280;38802;50.198;19.796;2023-03-22T01:28:37;96021.02;;;6.49;85.91
52935;BME280;38802;50.198;19.796;2023-03-22T01:31:07;96014.98;;;6.34;85.84
52935;BME280;38802;50.198;19.796;2023-03-22T01:33:35;96012.60;;;6.21;85.85
52935;BME280;38802;50.198;19.796;2023-03-22T01:36:03;96011.70;;;6.12;85.97
52935;BME280;38802;50.198;19.796;2023-03-22T01:38:33;96008.16;;;6.02;86.19
52935;BME280;38802;50.198;19.796;2023-03-22T01:41:01;96006.39;;;5.93;86.17
52935;BME280;38802;50.198;19.796;2023-03-22T01:43:31;96003.93;;;5.85;86.37
52935;BME280;38802;50.198;19.796;2023-03-22T01:45:59;95999.55;;;5.81;86.62
52935;BME280;38802;50.198;19.796;2023-03-22T01:48:41;96000.02;;;5.80;87.08
52935;BME280;38802;50.198;19.796;2023-03-22T01:51:21;95996.67;;;5.76;87.16
52935;BME280;38802;50.198;19.796;2023-03-22T01:54:11;95997.85;;;5.79;87.09
52935;BME280;38802;50.198;19.796;2023-03-22T01:56:41;95991.02;;;5.83;87.26
52935;BME280;38802;50.198;19.796;2023-03-22T01:59:13;95991.27;;;5.84;87.52
52935;BME280;38802;50.198;19.796;2023-03-22T02:02:05;95986.90;;;5.82;87.58
52935;BME280;38802;50.198;19.796;2023-03-22T02:04:35;95988.27;;;5.82;87.45
52935;BME280;38802;50.198;19.796;2023-03-22T02:07:09;95987.85;;;5.83;87.81
52935;BME280;38802;50.198;19.796;2023-03-22T02:09:43;95987.67;;;5.84;88.12
52935;BME280;38802;50.198;19.796;2023-03-22T02:16:09;95987.24;;;5.72;88.08
52935;BME280;38802;50.198;19.796;2023-03-22T02:22:20;95987.36;;;5.83;88.32
52935;BME280;38802;50.198;19.796;2023-03-22T02:24:54;95983.84;;;5.84;88.14
52935;BME280;38802;50.198;19.796;2023-03-22T02:27:36;95980.04;;;5.84;88.11
52935;BME280;38802;50.198;19.796;2023-03-22T02:33:01;95974.70;;;5.74;88.08
52935;BME280;38802;50.198;19.796;2023-03-22T02:35:43;95972.05;;;5.70;88.17
52935;BME280;38802;50.198;19.796;2023-03-22T02:41:07;95968.61;;;5.67;88.32
52935;BME280;38802;50.198;19.796;2023-03-22T02:44:05;95970.19;;;5.64;88.19
52935;BME280;38802;50.198;19.796;2023-03-22T02:46:38;95967.00;;;5.63;88.36
52935;BME280;38802;50.198;19.796;2023-03-22T02:52:24;95962.72;;;5.55;88.33
52935;BME280;38802;50.198;19.796;2023-03-22T02:55:05;95961.95;;;5.51;88.28
52935;BME280;38802;50.198;19.796;2023-03-22T03:00:11;95960.75;;;5.46;88.22
52935;BME280;38802;50.198;19.796;2023-03-22T03:02:45;95960.81;;;5.45;88.17
52935;BME280;38802;50.198;19.796;2023-03-22T03:05:17;95961.94;;;5.41;87.92
52935;BME280;38802;50.198;19.796;2023-03-22T03:07:49;95961.08;;;5.33;87.83
52935;BME280;38802;50.198;19.796;2023-03-22T03:10:19;95964.55;;;5.25;87.82
52935;BME280;38802;50.198;19.796;2023-03-22T03:12:48;95965.77;;;5.16;87.95
52935;BME280;38802;50.198;19.796;2023-03-22T03:15:19;95965.39;;;5.11;88.04
52935;BME280;38802;50.198;19.796;2023-03-22T03:28:45;95965.81;;;4.87;88.55
52935;BME280;38802;50.198;19.796;2023-03-22T03:31:42;95964.55;;;4.87;88.53
52935;BME280;38802;50.198;19.796;2023-03-22T03:36:54;95964.70;;;4.88;88.70
52935;BME280;38802;50.198;19.796;2023-03-22T03:39:25;95969.00;;;4.85;88.82
52935;BME280;38802;50.198;19.796;2023-03-22T03:41:58;95966.32;;;4.87;88.85
52935;BME280;38802;50.198;19.796;2023-03-22T03:44:29;95969.42;;;4.92;89.16
52935;BME280;38802;50.198;19.796;2023-03-22T03:46:58;95972.90;;;4.96;88.96
52935;BME280;38802;50.198;19.796;2023-03-22T03:49:26;95976.31;;;4.99;89.14
52935;BME280;38802;50.198;19.796;2023-03-22T03:51:55;95975.11;;;5.05;89.10
52935;BME280;38802;50.198;19.796;2023-03-22T03:54:23;95974.68;;;5.06;88.98
52935;BME280;38802;50.198;19.796;2023-03-22T03:56:51;95975.25;;;5.08;89.05
52935;BME280;38802;50.198;19.796;2023-03-22T03:59:20;95974.38;;;5.08;88.87
52935;BME280;38802;50.198;19.796;2023-03-22T04:01:49;95973.77;;;5.07;88.95
52935;BME280;38802;50.198;19.796;2023-03-22T04:04:28;95967.98;;;5.06;89.05
52935;BME280;38802;50.198;19.796;2023-03-22T04:07:04;95966.64;;;5.02;88.84
52935;BME280;38802;50.198;19.796;2023-03-22T04:09:36;95971.55;;;5.01;88.88
52935;BME280;38802;50.198;19.796;2023-03-22T04:12:13;95973.05;;;4.99;88.82
52935;BME280;38802;50.198;19.796;2023-03-22T04:14:44;95972.94;;;4.96;88.85
52935;BME280;38802;50.198;19.796;2023-03-22T04:17:19;95972.02;;;4.97;89.00
52935;BME280;38802;50.198;19.796;2023-03-22T04:19:47;95976.04;;;4.96;88.89
52935;BME280;38802;50.198;19.796;2023-03-22T04:22:16;95978.55;;;4.99;89.10
52935;BME280;38802;50.198;19.796;2023-03-22T04:24:45;95978.36;;;5.00;88.99
52935;BME280;38802;50.198;19.796;2023-03-22T04:27:19;95981.20;;;4.99;89.13
52935;BME280;38802;50.198;19.796;2023-03-22T04:29:56;95981.75;;;4.98;88.99
52935;BME280;38802;50.198;19.796;2023-03-22T04:32:45;95987.74;;;5.01;89.23
52935;BME280;38802;50.198;19.796;2023-03-22T04:35:15;95988.58;;;5.07;89.27
52935;BME280;38802;50.198;19.796;2023-03-22T04:37:44;95984.73;;;5.13;89.35
52935;BME280;38802;50.198;19.796;2023-03-22T04:40:15;95987.27;;;5.19;89.32
52935;BME280;38802;50.198;19.796;2023-03-22T04:43:02;95988.45;;;5.25;89.33
52935;BME280;38802;50.198;19.796;2023-03-22T04:45:53;95991.23;;;5.27;89.26
52935;BME280;38802;50.198;19.796;2023-03-22T04:48:30;95987.97;;;5.30;89.31
52935;BME280;38802;50.198;19.796;2023-03-22T04:51:01;95991.16;;;5.33;89.36
52935;BME280;38802;50.198;19.796;2023-03-22T04:53:36;95989.28;;;5.36;89.10
52935;BME280;38802;50.198;19.796;2023-03-22T04:56:10;95993.23;;;5.36;88.95
52935;BME280;38802;50.198;19.796;2023-03-22T04:58:40;95995.56;;;5.35;88.77
52935;BME280;38802;50.198;19.796;2023-03-22T05:01:11;95996.91;;;5.38;89.02
52935;BME280;38802;50.198;19.796;2023-03-22T05:03:40;95999.41;;;5.45;89.16
52935;BME280;38802;50.198;19.796;2023-03-22T05:06:10;95997.16;;;5.52;89.38
52935;BME280;38802;50.198;19.796;2023-03-22T05:09:08;95994.06;;;5.60;89.22
52935;BME280;38802;50.198;19.796;2023-03-22T05:11:37;95990.48;;;5.62;89.14
52935;BME280;38802;50.198;19.796;2023-03-22T05:14:20;95993.39;;;5.65;89.20
52935;BME280;38802;50.198;19.796;2023-03-22T05:16:48;95996.13;;;5.71;89.09
52935;BME280;38802;50.198;19.796;2023-03-22T05:19:16;95991.23;;;5.77;89.24
52935;BME280;38802;50.198;19.796;2023-03-22T05:21:47;95990.33;;;5.88;89.54
52935;BME280;38802;50.198;19.796;2023-03-22T05:24:15;95990.85;;;5.93;89.45
52935;BME280;38802;50.198;19.796;2023-03-22T05:26:45;95989.85;;;5.92;89.31
52935;BME280;38802;50.198;19.796;2023-03-22T05:29:13;95993.11;;;5.95;89.49
52935;BME280;38802;50.198;19.796;2023-03-22T05:32:00;95989.09;;;6.07;89.74
52935;BME280;38802;50.198;19.796;2023-03-22T05:34:28;95989.49;;;6.11;89.63
52935;BME280;38802;50.198;19.796;2023-03-22T05:37:10;95990.86;;;6.13;89.57
52935;BME280;38802;50.198;19.796;2023-03-22T05:39:48;95987.02;;;6.22;89.80
52935;BME280;38802;50.198;19.796;2023-03-22T05:42:16;95981.71;;;6.23;89.80
52935;BME280;38802;50.198;19.796;2023-03-22T05:44:45;95986.50;;;6.22;89.73
52935;BME280;38802;50.198;19.796;2023-03-22T05:47:13;95985.71;;;6.23;89.67
52935;BME280;38802;50.198;19.796;2023-03-22T05:49:52;95990.42;;;6.27;89.79
52935;BME280;38802;50.198;19.796;2023-03-22T05:52:22;95984.24;;;6.32;89.92
52935;BME280;38802;50.198;19.796;2023-03-22T05:55:04;95988.12;;;6.38;90.10
52935;BME280;38802;50.198;19.796;2023-03-22T05:57:34;95990.10;;;6.42;90.17
52935;BME280;38802;50.198;19.796;2023-03-22T06:00:08;95989.42;;;6.46;90.41
52935;BME280;38802;50.198;19.796;2023-03-22T06:02:46;95992.84;;;6.52;90.61
52935;BME280;38802;50.198;19.796;2023-03-22T06:05:17;95992.01;;;6.54;90.60
52935;BME280;38802;50.198;19.796;2023-03-22T06:07:47;95988.68;;;6.57;90.58
52935;BME280;38802;50.198;19.796;2023-03-22T06:10:16;95985.90;;;6.60;90.70
52935;BME280;38802;50.198;19.796;2023-03-22T06:12:45;95986.23;;;6.67;90.93
52935;BME280;38802;50.198;19.796;2023-03-22T06:15:20;95989.43;;;6.73;91.10
52935;BME280;38802;50.198;19.796;2023-03-22T06:18:02;95992.39;;;6.80;90.87
52935;BME280;38802;50.198;19.796;2023-03-22T06:20:34;95990.88;;;6.87;91.12
52935;BME280;38802;50.198;19.796;2023-03-22T06:23:07;95986.38;;;6.94;91.17
52935;BME280;38802;50.198;19.796;2023-03-22T06:25:36;95985.59;;;6.99;91.09
52935;BME280;38802;50.198;19.796;2023-03-22T06:28:04;95981.16;;;7.03;91.16
52935;BME280;38802;50.198;19.796;2023-03-22T06:30:36;95983.11;;;7.04;91.03
52935;BME280;38802;50.198;19.796;2023-03-22T06:33:27;95984.34;;;7.02;90.96
52935;BME280;38802;50.198;19.796;2023-03-22T06:36:00;95991.24;;;7.04;91.25
52935;BME280;38802;50.198;19.796;2023-03-22T06:38:56;95989.83;;;7.09;91.17
52935;BME280;38802;50.198;19.796;2023-03-22T06:41:25;95987.88;;;7.10;91.09
52935;BME280;38802;50.198;19.796;2023-03-22T06:43:53;95977.72;;;7.07;91.19
52935;BME280;38802;50.198;19.796;2023-03-22T06:46:42;95976.85;;;7.05;91.06
52935;BME280;38802;50.198;19.796;2023-03-22T06:49:17;95978.80;;;7.04;91.18
52935;BME280;38802;50.198;19.796;2023-03-22T06:51:46;95982.52;;;7.03;91.23
52935;BME280;38802;50.198;19.796;2023-03-22T06:54:14;95988.73;;;7.00;90.93
52935;BME280;38802;50.198;19.796;2023-03-22T06:56:44;95987.99;;;6.99;91.03
52935;BME280;38802;50.198;19.796;2023-03-22T06:59:12;95989.11;;;7.00;91.25
52935;BME280;38802;50.198;19.796;2023-03-22T07:01:40;95992.41;;;7.02;91.22
52935;BME280;38802;50.198;19.796;2023-03-22T07:04:10;95994.72;;;7.06;91.34
52935;BME280;38802;50.198;19.796;2023-03-22T07:06:38;95995.04;;;7.09;91.19
52935;BME280;38802;50.198;19.796;2023-03-22T07:09:07;95999.32;;;7.14;91.39
52935;BME280;38802;50.198;19.796;2023-03-22T07:11:35;95998.67;;;7.13;91.27
52935;BME280;38802;50.198;19.796;2023-03-22T07:14:03;96001.64;;;7.17;91.31
52935;BME280;38802;50.198;19.796;2023-03-22T07:16:53;95999.96;;;7.26;91.51
52935;BME280;38802;50.198;19.796;2023-03-22T07:19:22;95997.67;;;7.39;91.81
52935;BME280;38802;50.198;19.796;2023-03-22T07:21:50;95994.23;;;7.53;91.93
52935;BME280;38802;50.198;19.796;2023-03-22T07:24:21;95992.30;;;7.67;91.81
52935;BME280;38802;50.198;19.796;2023-03-22T07:26:50;95990.46;;;7.77;91.82
52935;BME280;38802;50.198;19.796;2023-03-22T07:29:21;95985.88;;;7.86;91.76
52935;BME280;38802;50.198;19.796;2023-03-22T07:31:49;95988.16;;;7.95;91.68
52935;BME280;38802;50.198;19.796;2023-03-22T07:34:27;95988.51;;;7.99;91.39
52935;BME280;38802;50.198;19.796;2023-03-22T07:37:09;95991.54;;;8.03;91.28
52935;BME280;38802;50.198;19.796;2023-03-22T07:39:37;95992.15;;;8.04;91.07
52935;BME280;38802;50.198;19.796;2023-03-22T07:42:06;95990.55;;;8.04;91.09
52935;BME280;38802;50.198;19.796;2023-03-22T07:44:53;95993.52;;;8.06;90.80
52935;BME280;38802;50.198;19.796;2023-03-22T07:47:24;95997.22;;;8.05;90.55
52935;BME280;38802;50.198;19.796;2023-03-22T07:50:27;95997.31;;;8.04;90.65
52935;BME280;38802;50.198;19.796;2023-03-22T07:52:56;95994.36;;;8.08;90.48
52935;BME280;38802;50.198;19.796;2023-03-22T07:55:25;95992.77;;;8.09;90.12
52935;BME280;38802;50.198;19.796;2023-03-22T07:57:53;95993.29;;;8.07;90.16
52935;BME280;38802;50.198;19.796;2023-03-22T08:00:22;95992.69;;;8.05;90.18
52935;BME280;38802;50.198;19.796;2023-03-22T08:03:00;95986.56;;;8.06;90.13
52935;BME280;38802;50.198;19.796;2023-03-22T08:05:54;95987.17;;;8.07;89.88
52935;BME280;38802;50.198;19.796;2023-03-22T08:08:25;95990.34;;;8.11;89.84
52935;BME280;38802;50.198;19.796;2023-03-22T08:10:54;95990.70;;;8.18;89.81
52935;BME280;38802;50.198;19.796;2023-03-22T08:13:22;95991.40;;;8.22;89.88
52935;BME280;38802;50.198;19.796;2023-03-22T08:15:51;95993.13;;;8.25;89.71
52935;BME280;38802;50.198;19.796;2023-03-22T08:18:21;95994.16;;;8.27;89.67
52935;BME280;38802;50.198;19.796;2023-03-22T08:20:54;95990.95;;;8.31;89.70
52935;BME280;38802;50.198;19.796;2023-03-22T08:23:26;95991.60;;;8.36;89.53
52935;BME280;38802;50.198;19.796;2023-03-22T08:26:27;95991.69;;;8.43;89.77
52935;BME280;38802;50.198;19.796;2023-03-22T08:28:58;95988.77;;;8.54;89.87
52935;BME280;38802;50.198;19.796;2023-03-22T08:31:29;95988.50;;;8.64;89.52
52935;BME280;38802;50.198;19.796;2023-03-22T08:33:58;95987.64;;;8.71;89.52
52935;BME280;38802;50.198;19.796;2023-03-22T08:36:27;95988.70;;;8.82;89.72
52935;BME280;38802;50.198;19.796;2023-03-22T08:39:02;95986.18;;;8.96;89.79
52935;BME280;38802;50.198;19.796;2023-03-22T08:41:40;95987.49;;;9.12;89.54
52935;BME280;38802;50.198;19.796;2023-03-22T08:44:09;95986.40;;;9.24;89.10
52935;BME280;38802;50.198;19.796;2023-03-22T08:46:37;95983.13;;;9.32;88.71
52935;BME280;38802;50.198;19.796;2023-03-22T08:49:05;95984.74;;;9.39;88.52
52935;BME280;38802;50.198;19.796;2023-03-22T08:51:49;95987.41;;;9.41;88.22
52935;BME280;38802;50.198;19.796;2023-03-22T08:54:30;95987.00;;;9.41;88.32
52935;BME280;38802;50.198;19.796;2023-03-22T08:57:04;95984.88;;;9.42;88.06
52935;BME280;38802;50.198;19.796;2023-03-22T09:00:04;95984.30;;;9.43;87.98
52935;BME280;38802;50.198;19.796;2023-03-22T09:02:43;95981.69;;;9.45;88.05
52935;BME280;38802;50.198;19.796;2023-03-22T09:05:12;95979.30;;;9.51;88.30
52935;BME280;38802;50.198;19.796;2023-03-22T09:07:41;95972.73;;;9.53;87.77
52935;BME280;38802;50.198;19.796;2023-03-22T09:10:16;95971.11;;;9.54;87.49
52935;BME280;38802;50.198;19.796;2023-03-22T09:12:47;95976.98;;;9.64;87.97
52935;BME280;38802;50.198;19.796;2023-03-22T09:15:15;95975.41;;;9.77;86.41
52935;BME280;38802;50.198;19.796;2023-03-22T09:17:46;95976.86;;;9.85;86.63
52935;BME280;38802;50.198;19.796;2023-03-22T09:20:14;95972.98;;;9.91;86.20
52935;BME280;38802;50.198;19.796;2023-03-22T09:22:43;95971.39;;;9.96;85.94
52935;BME280;38802;50.198;19.796;2023-03-22T09:25:13;95971.38;;;10.05;85.68
52935;BME280;38802;50.198;19.796;2023-03-22T09:27:43;95964.03;;;10.11;84.84
52935;BME280;38802;50.198;19.796;2023-03-22T09:30:11;95965.73;;;10.18;84.65
52935;BME280;38802;50.198;19.796;2023-03-22T09:32:39;95962.14;;;10.23;84.10
52935;BME280;38802;50.198;19.796;2023-03-22T09:35:08;95962.17;;;10.31;84.17
52935;BME280;38802;50.198;19.796;2023-03-22T09:37:49;95961.60;;;10.42;84.09
52935;BME280;38802;50.198;19.796;2023-03-22T09:40:30;95953.33;;;10.54;84.06
52935;BME280;38802;50.198;19.796;2023-03-22T09:43:02;95950.86;;;10.64;83.06
52935;BME280;38802;50.198;19.796;2023-03-22T09:45:36;95946.63;;;10.75;83.07
52935;BME280;38802;50.198;19.796;2023-03-22T09:50:51;95942.63;;;10.94;81.17
52935;BME280;38802;50.198;19.796;2023-03-22T09:53:22;95943.20;;;11.02;81.19
52935;BME280;38802;50.198;19.796;2023-03-22T10:06:50;95927.52;;;11.60;78.88
52935;BME280;38802;50.198;19.796;2023-03-22T10:12:28;95924.09;;;11.83;80.00
52935;BME280;38802;50.198;19.796;2023-03-22T10:15:20;95915.88;;;11.90;78.28
52935;BME280;38802;50.198;19.796;2023-03-22T10:17:52;95916.51;;;11.99;79.26
52935;BME280;38802;50.198;19.796;2023-03-22T10:23:03;95915.64;;;12.04;77.35
52935;BME280;38802;50.198;19.796;2023-03-22T10:25:36;95915.34;;;12.09;78.14
52935;BME280;38802;50.198;19.796;2023-03-22T10:28:14;95916.45;;;12.16;76.50
52935;BME280;38802;50.198;19.796;2023-03-22T10:30:44;95913.78;;;12.22;77.33
52935;BME280;38802;50.198;19.796;2023-03-22T10:33:27;95909.39;;;12.32;77.62
52935;BME280;38802;50.198;19.796;2023-03-22T10:35:59;95904.77;;;12.42;77.22
52935;BME280;38802;50.198;19.796;2023-03-22T10:38:29;95908.34;;;12.48;76.95
52935;BME280;38802;50.198;19.796;2023-03-22T10:41:00;95904.59;;;12.56;76.40
52935;BME280;38802;50.198;19.796;2023-03-22T10:43:35;95905.88;;;12.60;76.25
52935;BME280;38802;50.198;19.796;2023-03-22T10:46:05;95907.44;;;12.62;76.45
52935;BME280;38802;50.198;19.796;2023-03-22T10:48:38;95904.65;;;12.62;75.61
52935;BME280;38802;50.198;19.796;2023-03-22T10:51:17;95904.61;;;12.69;76.38
52935;BME280;38802;50.198;19.796;2023-03-22T10:53:47;95902.61;;;12.75;76.52
52935;BME280;38802;50.198;19.796;2023-03-22T10:56:18;95899.78;;;12.79;75.73
52935;BME280;38802;50.198;19.796;2023-03-22T10:58:48;95897.12;;;12.85;75.49
52935;BME280;38802;50.198;19.796;2023-03-22T11:01:32;95894.33;;;12.87;74.59
52935;BME280;38802;50.198;19.796;2023-03-22T11:04:14;95891.45;;;12.88;74.04
52935;BME280;38802;50.198;19.796;2023-03-22T11:06:51;95885.67;;;12.88;74.09
52935;BME280;38802;50.198;19.796;2023-03-22T11:09:23;95884.77;;;12.92;74.86
52935;BME280;38802;50.198;19.796;2023-03-22T11:11:55;95881.70;;;12.97;74.19
52935;BME280;38802;50.198;19.796;2023-03-22T11:14:36;95878.91;;;12.97;73.34
52935;BME280;38802;50.198;19.796;2023-03-22T11:17:11;95878.97;;;12.95;73.63
52935;BME280;38802;50.198;19.796;2023-03-22T11:20:12;95881.66;;;12.94;73.09
52935;BME280;38802;50.198;19.796;2023-03-22T11:22:44;95878.56;;;12.97;73.53
52935;BME280;38802;50.198;19.796;2023-03-22T11:25:25;95870.77;;;13.05;73.43
52935;BME280;38802;50.198;19.796;2023-03-22T11:27:56;95872.83;;;13.11;73.44
52935;BME280;38802;50.198;19.796;2023-03-22T11:30:33;95874.95;;;13.23;74.00
52935;BME280;38802;50.198;19.796;2023-03-22T11:35:37;95865.77;;;13.44;73.38
52935;BME280;38802;50.198;19.796;2023-03-22T11:38:27;95864.25;;;13.50;72.60
52935;BME280;38802;50.198;19.796;2023-03-22T11:41:05;95866.17;;;13.57;72.40
52935;BME280;38802;50.198;19.796;2023-03-22T11:43:41;95860.77;;;13.64;72.47
52935;BME280;38802;50.198;19.796;2023-03-22T11:46:16;95861.73;;;13.65;72.09
52935;BME280;38802;50.198;19.796;2023-03-22T11:48:51;95858.88;;;13.64;71.49
52935;BME280;38802;50.198;19.796;2023-03-22T11:51:41;95861.80;;;13.61;71.38
52935;BME280;38802;50.198;19.796;2023-03-22T11:54:17;95860.52;;;13.63;71.29
52935;BME280;38802;50.198;19.796;2023-03-22T11:56:50;95856.16;;;13.70;71.03
52935;BME280;38802;50.198;19.796;2023-03-22T11:59:27;95852.33;;;13.70;70.68
52935;BME280;38802;50.198;19.796;2023-03-22T12:04:37;95849.27;;;13.79;71.40
52935;BME280;38802;50.198;19.796;2023-03-22T12:07:14;95845.73;;;13.85;71.54
52935;BME280;38802;50.198;19.796;2023-03-22T12:10:11;95835.74;;;13.92;71.00
52935;BME280;38802;50.198;19.796;2023-03-22T12:15:38;95833.15;;;14.15;71.40
52935;BME280;38802;50.198;19.796;2023-03-22T12:18:15;95827.12;;;14.24;70.83
52935;BME280;38802;50.198;19.796;2023-03-22T12:20:58;95827.67;;;14.30;70.87
52935;BME280;38802;50.198;19.796;2023-03-22T12:23:29;95824.61;;;14.38;71.44
52935;BME280;38802;50.198;19.796;2023-03-22T12:26:10;95822.66;;;14.47;70.67
52935;BME280;38802;50.198;19.796;2023-03-22T12:29:02;95819.03;;;14.48;69.84
52935;BME280;38802;50.198;19.796;2023-03-22T12:31:36;95817.61;;;14.44;70.09
52935;BME280;38802;50.198;19.796;2023-03-22T12:34:09;95816.79;;;14.46;69.91
52935;BME280;38802;50.198;19.796;2023-03-22T12:36:51;95813.38;;;14.47;69.51
52935;BME280;38802;50.198;19.796;2023-03-22T12:39:25;95810.44;;;14.48;68.94
52935;BME280;38802;50.198;19.796;2023-03-22T12:42:01;95807.05;;;14.45;68.48
52935;BME280;38802;50.198;19.796;2023-03-22T12:44:40;95811.23;;;14.45;69.14
52935;BME280;38802;50.198;19.796;2023-03-22T12:47:35;95808.61;;;14.49;69.22
52935;BME280;38802;50.198;19.796;2023-03-22T12:50:23;95808.29;;;14.52;69.50
52935;BME280;38802;50.198;19.796;2023-03-22T12:52:55;95811.92;;;14.55;68.03
52935;BME280;38802;50.198;19.796;2023-03-22T12:57:59;95810.14;;;14.51;67.83
52935;BME280;38802;50.198;19.796;2023-03-22T13:00:54;95801.69;;;14.48;68.33
52935;BME280;38802;50.198;19.796;2023-03-22T13:03:43;95805.50;;;14.52;68.76
52935;BME280;38802;50.198;19.796;2023-03-22T13:06:33;95806.09;;;14.53;67.17
52935;BME280;38802;50.198;19.796;2023-03-22T13:09:46;95804.52;;;14.50;67.92
52935;BME280;38802;50.198;19.796;2023-03-22T13:35:47;95788.48;;;14.67;66.12
52935;BME280;38802;50.198;19.796;2023-03-22T13:48:50;95773.86;;;14.80;66.32
52935;BME280;38802;50.198;19.796;2023-03-22T13:56:50;95768.31;;;14.60;66.04
52935;BME280;38802;50.198;19.796;2023-03-22T13:59:26;95763.42;;;14.55;66.19
52935;BME280;38802;50.198;19.796;2023-03-22T14:02:23;95760.23;;;14.54;65.57
52935;BME280;38802;50.198;19.796;2023-03-22T14:05:20;95758.38;;;14.58;65.78
52935;BME280;38802;50.198;19.796;2023-03-22T14:08:21;95754.05;;;14.72;66.07
52935;BME280;38802;50.198;19.796;2023-03-22T14:10:56;95752.22;;;14.78;65.98
52935;BME280;38802;50.198;19.796;2023-03-22T14:13:30;95753.91;;;14.79;66.10
52935;BME280;38802;50.198;19.796;2023-03-22T14:16:32;95751.60;;;14.72;65.74
52935;BME280;38802;50.198;19.796;2023-03-22T14:19:07;95749.16;;;14.62;65.62
52935;BME280;38802;50.198;19.796;2023-03-22T14:21:47;95745.82;;;14.51;65.87
52935;BME280;38802;50.198;19.796;2023-03-22T14:24:17;95746.99;;;14.48;65.53
52935;BME280;38802;50.198;19.796;2023-03-22T14:26:49;95743.00;;;14.51;65.64
52935;BME280;38802;50.198;19.796;2023-03-22T14:29:19;95747.23;;;14.56;65.50
52935;BME280;38802;50.198;19.796;2023-03-22T14:32:14;95749.04;;;14.62;65.82
52935;BME280;38802;50.198;19.796;2023-03-22T14:34:44;95751.91;;;14.62;64.86
52935;BME280;38802;50.198;19.796;2023-03-22T14:37:13;95746.11;;;14.59;64.96
52935;BME280;38802;50.198;19.796;2023-03-22T14:39:46;95745.86;;;14.59;65.38
52935;BME280;38802;50.198;19.796;2023-03-22T14:44:52;95742.22;;;14.54;64.98
52935;BME280;38802;50.198;19.796;2023-03-22T14:47:40;95737.06;;;14.48;64.78
52935;BME280;38802;50.198;19.796;2023-03-22T14:50:16;95736.83;;;14.36;64.94
52935;BME280;38802;50.198;19.796;2023-03-22T14:52:48;95736.46;;;14.33;65.12
52935;BME280;38802;50.198;19.796;2023-03-22T14:55:20;95735.38;;;14.34;65.21
52935;BME280;38802;50.198;19.796;2023-03-22T14:57:57;95731.73;;;14.32;65.16
52935;BME280;38802;50.198;19.796;2023-03-22T15:00:25;95731.25;;;14.31;65.46
52935;BME280;38802;50.198;19.796;2023-03-22T15:02:59;95730.52;;;14.33;65.31
52935;BME280;38802;50.198;19.796;2023-03-22T15:05:37;95727.84;;;14.34;64.98
52935;BME280;38802;50.198;19.796;2023-03-22T15:10:48;95725.38;;;14.32;65.24
52935;BME280;38802;50.198;19.796;2023-03-22T15:13:16;95723.40;;;14.31;65.28
52935;BME280;38802;50.198;19.796;2023-03-22T15:15:45;95725.05;;;14.27;65.23
52935;BME280;38802;50.198;19.796;2023-03-22T15:18:15;95728.23;;;14.25;65.57
52935;BME280;38802;50.198;19.796;2023-03-22T15:20:44;95727.97;;;14.28;65.40
52935;BME280;38802;50.198;19.796;2023-03-22T15:23:21;95725.88;;;14.29;65.28